Time;durP1;ratioP1;P1;durP2;ratioP2;P2;SDS_P1;SDS_P2;PMS_P1;PMS_P2;Temp;Humidity;BMP_temperature;BMP_pressure;BME280_temperature;BME280_humidity;BME280_pressure;Samples;Min_cycle;Max_cycle;Signal;HPM_P1;HPM_P2
2021/04/03 00:00:45;;;;;;;17.80;3.58;;;6.30;99.90;;;;;;5032944;28;20558;-86
2021/04/03 00:03:13;;;;;;;14.50;4.22;;;6.30;99.90;;;;;;5032501;28;20389;-87
2021/04/03 00:05:40;;;;;;;15.47;3.67;;;6.20;99.90;;;;;;5031332;28;20067;-86
2021/04/03 00:08:08;;;;;;;14.27;3.78;;;6.20;99.90;;;;;;5016629;28;20077;-87
2021/04/03 00:10:58;;;;;;;16.48;4.25;;;6.20;99.90;;;;;;5030899;28;20051;-87
2021/04/03 00:13:33;;;;;;;22.08;4.35;;;6.20;99.90;;;;;;5029103;28;20049;-87
2021/04/03 00:16:01;;;;;;;12.93;3.78;;;6.20;99.90;;;;;;5047459;28;20053;-87
2021/04/03 00:18:28;;;;;;;11.32;3.67;;;6.20;99.90;;;;;;5029310;28;20103;-87
2021/04/03 00:20:54;;;;;;;16.95;4.20;;;6.10;99.90;;;;;;5035977;28;20064;-87
2021/04/03 00:23:21;;;;;;;16.48;4.13;;;6.10;99.90;;;;;;5035580;28;20291;-87
2021/04/03 00:25:49;;;;;;;17.75;4.43;;;6.10;99.90;;;;;;5035017;28;20060;-86
2021/04/03 00:28:16;;;;;;;16.77;4.25;;;6.10;99.90;;;;;;5051642;28;20049;-87
2021/04/03 00:30:42;;;;;;;17.40;3.97;;;6.10;99.90;;;;;;5035625;28;20044;-87
2021/04/03 00:33:09;;;;;;;16.38;4.95;;;6.10;99.90;;;;;;5034338;28;20056;-86
2021/04/03 00:35:38;;;;;;;17.05;5.30;;;6.00;99.90;;;;;;5052379;28;20124;-87
2021/04/03 00:38:06;;;;;;;;;;;6.10;99.90;;;;;;5049768;28;20500;-87
2021/04/03 00:40:35;;;;;;;16.17;3.90;;;6.00;99.90;;;;;;5029689;28;19921;-87
2021/04/03 00:43:06;;;;;;;14.45;4.30;;;6.00;99.90;;;;;;5034599;28;20041;-87
2021/04/03 00:45:32;;;;;;;16.42;4.63;;;6.00;99.90;;;;;;5034136;28;20466;-87
2021/04/03 00:47:59;;;;;;;11.98;4.03;;;6.00;99.90;;;;;;5033701;28;20052;-87
2021/04/03 00:50:28;;;;;;;17.48;4.30;;;6.00;99.90;;;;;;5033943;28;20051;-87
2021/04/03 00:52:56;;;;;;;17.88;4.95;;;6.00;99.90;;;;;;5035625;28;20136;-87
2021/04/03 00:55:22;;;;;;;21.48;4.70;;;6.00;99.90;;;;;;5035787;28;20048;-87
2021/04/03 00:57:49;;;;;;;13.25;4.00;;;6.00;99.90;;;;;;5033760;28;20067;-87
2021/04/03 01:00:17;;;;;;;17.10;4.78;;;6.00;99.90;;;;;;5039615;28;20057;-87
2021/04/03 01:02:44;;;;;;;20.88;4.57;;;5.90;99.90;;;;;;5033279;28;20053;-87
2021/04/03 01:05:22;;;;;;;18.88;5.32;;;5.90;99.90;;;;;;5050439;28;20059;-87
2021/04/03 01:07:49;;;;;;;15.02;4.22;;;5.90;99.90;;;;;;5034526;28;20052;-87
2021/04/03 01:10:22;;;;;;;22.25;5.00;;;5.90;99.90;;;;;;5039612;28;20100;-87
2021/04/03 01:13:32;;;;;;;18.08;5.05;;;5.90;99.90;;;;;;5052509;28;20044;-87
2021/04/03 01:16:15;;;;;;;21.70;5.55;;;5.90;99.90;;;;;;5042719;28;20964;-87
2021/04/03 01:19:04;;;;;;;17.42;4.80;;;5.90;99.90;;;;;;5040570;28;20045;-86
2021/04/03 01:21:54;;;;;;;14.45;5.15;;;5.90;99.90;;;;;;5038513;28;20481;-87
2021/04/03 01:24:49;;;;;;;16.25;4.95;;;5.90;99.90;;;;;;5048405;28;20095;-87
2021/04/03 01:27:21;;;;;;;18.92;5.25;;;6.00;99.90;;;;;;4966037;28;20451;-86
2021/04/03 01:30:05;;;;;;;19.38;5.78;;;6.00;99.90;;;;;;4973252;28;20042;-87
2021/04/03 01:32:57;;;;;;;14.55;4.22;;;6.00;99.90;;;;;;4974170;28;20045;-86
2021/04/03 01:35:30;;;;;;;21.08;5.32;;;6.00;99.90;;;;;;4967039;28;20619;-87
2021/04/03 01:38:05;;;;;;;16.75;4.93;;;6.00;99.90;;;;;;4959886;28;20214;-87
2021/04/03 01:40:33;;;;;;;16.67;5.00;;;6.00;99.90;;;;;;4970819;28;20068;-87
2021/04/03 01:43:08;;;;;;;16.67;4.60;;;6.00;99.90;;;;;;4974604;28;20046;-87
2021/04/03 01:45:38;;;;;;;15.88;5.00;;;6.00;99.90;;;;;;4974190;28;20053;-86
2021/04/03 01:48:07;;;;;;;15.48;4.75;;;6.00;99.90;;;;;;4989934;28;20626;-86
2021/04/03 01:50:34;;;;;;;13.50;4.95;;;6.00;99.90;;;;;;4974696;28;20042;-86
2021/04/03 01:53:02;;;;;;;13.57;4.55;;;6.00;99.90;;;;;;4976248;28;20053;-87
2021/04/03 01:55:29;;;;;;;21.83;4.97;;;6.00;99.90;;;;;;4991450;28;20050;-87
2021/04/03 01:57:57;;;;;;;16.38;4.95;;;6.00;99.90;;;;;;4991617;28;20122;-87
2021/04/03 02:00:26;;;;;;;18.55;4.05;;;6.00;99.90;;;;;;4974726;28;20039;-87
2021/04/03 02:02:53;;;;;;;19.40;4.95;;;6.00;99.90;;;;;;4975906;28;20129;-87
2021/04/03 02:05:21;;;;;;;21.77;4.20;;;6.00;99.90;;;;;;5048482;28;20084;-88
2021/04/03 02:07:50;;;;;;;13.50;4.50;;;6.00;99.90;;;;;;5033145;28;20050;-87
2021/04/03 02:10:25;;;;;;;13.55;5.10;;;6.00;99.90;;;;;;5039276;28;20048;-87
2021/04/03 02:12:52;;;;;;;15.63;4.13;;;6.00;99.90;;;;;;5022884;28;20037;-87
2021/04/03 02:15:19;;;;;;;14.07;3.97;;;6.00;99.90;;;;;;5043594;28;20171;-87
2021/04/03 02:17:49;;;;;;;20.35;3.88;;;5.90;99.90;;;;;;5024055;28;20123;-86
2021/04/03 02:20:16;;;;;;;17.65;4.07;;;6.00;99.90;;;;;;5033633;28;20125;-86
2021/04/03 02:22:43;;;;;;;17.48;4.00;;;5.90;99.90;;;;;;5031950;28;20036;-87
2021/04/03 02:25:13;;;;;;;20.85;3.90;;;5.90;99.90;;;;;;5032722;28;20048;-87
2021/04/03 02:27:40;;;;;;;18.85;3.67;;;5.90;99.90;;;;;;5031208;28;20053;-86
2021/04/03 02:30:15;;;;;;;19.98;4.82;;;5.90;99.90;;;;;;5028412;28;20040;-86
2021/04/03 02:32:45;;;;;;;17.65;4.47;;;5.90;99.90;;;;;;5029295;28;20061;-86
2021/04/03 02:35:12;;;;;;;17.85;3.30;;;5.90;99.90;;;;;;5034056;28;20056;-87
2021/04/03 02:37:40;;;;;;;16.52;3.83;;;5.80;99.90;;;;;;5032600;28;20461;-87
2021/04/03 02:40:10;;;;;;;18.85;3.70;;;5.80;99.90;;;;;;5033117;28;20048;-87
2021/04/03 02:42:53;;;;;;;14.25;3.50;;;5.80;99.90;;;;;;5024845;28;20041;-86
2021/04/03 02:45:23;;;;;;;11.70;2.80;;;5.80;99.90;;;;;;5029905;28;20047;-86
2021/04/03 02:47:57;;;;;;;20.30;3.65;;;5.80;99.90;;;;;;5032874;28;20041;-86
2021/04/03 02:50:27;;;;;;;22.05;4.32;;;5.80;99.90;;;;;;5033224;28;20624;-87
2021/04/03 02:52:55;;;;;;;17.15;4.28;;;5.80;99.90;;;;;;5046767;28;20044;-86
2021/04/03 02:55:26;;;;;;;12.20;2.93;;;5.70;99.90;;;;;;5052017;28;20044;-86
2021/04/03 02:57:54;;;;;;;11.82;3.05;;;5.80;99.90;;;;;;5050801;28;20278;-86
2021/04/03 03:00:23;;;;;;;16.92;3.10;;;5.80;99.90;;;;;;5048868;28;20116;-86
2021/04/03 03:02:50;;;;;;;19.27;3.17;;;5.80;99.90;;;;;;5032278;28;20044;-86
2021/04/03 03:05:18;;;;;;;20.90;3.72;;;5.70;99.90;;;;;;5031015;28;20137;-87
2021/04/03 03:07:47;;;;;;;17.80;3.22;;;5.80;99.90;;;;;;5030889;28;20131;-87
2021/04/03 03:10:16;;;;;;;15.27;3.17;;;5.80;99.90;;;;;;5033078;28;20051;-86
2021/04/03 03:12:43;;;;;;;;;;;5.70;99.90;;;;;;5029360;28;20049;-86
2021/04/03 03:15:12;;;;;;;13.60;3.38;;;5.70;99.90;;;;;;5029044;28;19921;-87
2021/04/03 03:17:39;;;;;;;14.20;3.30;;;5.70;99.90;;;;;;5035557;28;20044;-86
2021/04/03 03:20:07;;;;;;;20.13;4.07;;;5.70;99.90;;;;;;5032436;28;20500;-87
2021/04/03 03:22:34;;;;;;;18.90;3.83;;;5.70;99.90;;;;;;5033348;28;20059;-86
2021/04/03 03:25:02;;;;;;;13.05;3.30;;;5.70;99.90;;;;;;5048252;28;20492;-86
2021/04/03 03:27:28;;;;;;;15.55;3.80;;;5.70;99.90;;;;;;5040976;28;20041;-86
2021/04/03 03:29:57;;;;;;;11.32;3.20;;;5.70;99.90;;;;;;5048988;28;20553;-86
2021/04/03 03:32:23;;;;;;;14.57;3.28;;;5.70;99.90;;;;;;5038135;28;21536;-86
2021/04/03 03:34:50;;;;;;;14.07;3.30;;;5.70;99.90;;;;;;5039068;28;20049;-87
2021/04/03 03:37:16;;;;;;;17.13;3.42;;;5.70;99.90;;;;;;5028361;28;20052;-86
2021/04/03 03:39:43;;;;;;;13.55;3.20;;;5.70;99.90;;;;;;5039911;28;20409;-87
2021/04/03 03:42:10;;;;;;;19.42;3.38;;;5.60;99.90;;;;;;5036783;28;20052;-86
2021/04/03 03:44:37;;;;;;;16.45;3.78;;;5.60;99.90;;;;;;5030300;28;20041;-86
2021/04/03 03:47:05;;;;;;;16.67;3.30;;;5.70;99.90;;;;;;5040291;28;20056;-86
2021/04/03 03:49:32;;;;;;;14.43;3.95;;;5.70;99.90;;;;;;5032540;28;20037;-86
2021/04/03 03:51:58;;;;;;;13.85;3.47;;;5.70;99.90;;;;;;5049953;28;20581;-86
2021/04/03 03:54:24;;;;;;;20.52;3.50;;;5.70;99.90;;;;;;5038943;28;20470;-86
2021/04/03 03:56:51;;;;;;;12.43;3.42;;;5.70;99.90;;;;;;5038889;28;20044;-87
2021/04/03 03:59:17;;;;;;;17.88;3.67;;;5.60;99.90;;;;;;5037441;28;20051;-87
2021/04/03 04:01:44;;;;;;;16.52;3.42;;;5.60;99.90;;;;;;5037322;28;20047;-87
2021/04/03 04:04:11;;;;;;;13.43;3.13;;;5.60;99.90;;;;;;5065598;28;20367;-87
2021/04/03 04:06:37;;;;;;;14.25;3.30;;;5.60;99.90;;;;;;5049568;28;20058;-86
2021/04/03 04:09:05;;;;;;;23.17;4.43;;;5.60;99.90;;;;;;5031300;28;20044;-86
2021/04/03 04:11:33;;;;;;;17.27;3.78;;;5.50;99.90;;;;;;5033516;28;20049;-86
2021/04/03 04:13:59;;;;;;;15.85;3.78;;;5.50;99.90;;;;;;5049116;28;20497;-86
2021/04/03 04:16:26;;;;;;;11.20;3.10;;;5.50;99.90;;;;;;5027057;28;20075;-86
2021/04/03 04:18:52;;;;;;;14.63;3.10;;;5.50;99.90;;;;;;5037993;28;20055;-86
2021/04/03 04:21:19;;;;;;;18.17;3.83;;;5.50;99.90;;;;;;5035995;28;20049;-86
2021/04/03 04:23:46;;;;;;;15.77;3.67;;;5.50;99.90;;;;;;5035499;28;20488;-86
2021/04/03 04:26:13;;;;;;;14.23;3.05;;;5.40;99.90;;;;;;5038905;28;20048;-86
2021/04/03 04:28:39;;;;;;;18.67;3.92;;;5.40;99.90;;;;;;5036497;28;20049;-87
2021/04/03 04:31:05;;;;;;;13.82;3.40;;;5.40;99.90;;;;;;5039235;28;20049;-87
2021/04/03 04:33:32;;;;;;;14.98;2.67;;;5.40;99.90;;;;;;5036702;28;20060;-86
2021/04/03 04:36:00;;;;;;;13.68;2.90;;;5.40;99.90;;;;;;5055953;28;20041;-86
2021/04/03 04:38:26;;;;;;;12.50;2.80;;;5.50;99.90;;;;;;5037496;28;20049;-87
2021/04/03 04:40:53;;;;;;;13.75;3.05;;;5.50;99.90;;;;;;5056747;28;20056;-87
2021/04/03 04:43:21;;;;;;;17.08;3.53;;;5.50;99.90;;;;;;5034585;28;20533;-87
2021/04/03 04:45:48;;;;;;;17.90;3.92;;;5.50;99.90;;;;;;5053671;28;20077;-87
2021/04/03 04:48:15;;;;;;;15.02;3.53;;;5.50;99.90;;;;;;5044727;28;20453;-87
2021/04/03 04:50:41;;;;;;;16.63;3.47;;;5.50;99.90;;;;;;5040960;28;20048;-87
2021/04/03 04:53:08;;;;;;;12.40;3.17;;;5.50;99.90;;;;;;5038172;28;20056;-87
2021/04/03 04:55:35;;;;;;;7.38;2.75;;;5.40;99.90;;;;;;5041504;28;20045;-87
2021/04/03 04:58:01;;;;;;;17.60;4.20;;;5.40;99.90;;;;;;5058532;28;20074;-87
2021/04/03 05:00:28;;;;;;;8.80;3.22;;;5.40;99.90;;;;;;5039311;28;20041;-86
2021/04/03 05:02:54;;;;;;;16.08;3.58;;;5.40;99.90;;;;;;5041038;28;20048;-86
2021/04/03 05:05:21;;;;;;;16.58;3.50;;;5.40;99.90;;;;;;5040780;28;20045;-86
2021/04/03 05:07:48;;;;;;;15.60;2.80;;;5.40;99.90;;;;;;5050445;28;20053;-87
2021/04/03 05:10:14;;;;;;;16.42;3.45;;;5.40;99.90;;;;;;5039812;28;20559;-87
2021/04/03 05:12:40;;;;;;;10.73;3.03;;;5.40;99.90;;;;;;5040878;28;20055;-86
2021/04/03 05:15:07;;;;;;;17.67;3.47;;;5.40;99.90;;;;;;5030689;28;20196;-86
2021/04/03 05:17:34;;;;;;;15.95;3.97;;;5.40;99.90;;;;;;5046773;28;20474;-87
2021/04/03 05:20:00;;;;;;;17.15;3.15;;;5.40;99.90;;;;;;5034637;28;20064;-87
2021/04/03 05:22:27;;;;;;;19.98;3.25;;;5.40;99.90;;;;;;5038644;28;20045;-87
2021/04/03 05:24:53;;;;;;;15.13;3.15;;;5.40;99.90;;;;;;5051052;28;20048;-87
2021/04/03 05:27:20;;;;;;;13.63;2.53;;;5.40;99.90;;;;;;5034482;28;20047;-87
2021/04/03 05:29:46;;;;;;;14.75;3.20;;;5.40;99.90;;;;;;5034709;28;20052;-86
2021/04/03 05:32:13;;;;;;;15.43;2.83;;;5.40;99.90;;;;;;5034847;28;20045;-86
2021/04/03 05:34:40;;;;;;;16.33;4.15;;;5.40;99.90;;;;;;5043732;28;20053;-87
2021/04/03 05:37:22;;;;;;;12.82;3.20;;;5.40;99.90;;;;;;5050088;28;20045;-86
2021/04/03 05:39:48;;;;;;;12.93;2.88;;;5.40;99.90;;;;;;5052194;28;20095;-86
2021/04/03 05:42:18;;;;;;;12.88;3.20;;;5.40;99.90;;;;;;5050434;28;20405;-85
2021/04/03 05:44:49;;;;;;;14.75;3.05;;;5.40;99.90;;;;;;5030859;28;20254;-87
2021/04/03 05:47:16;;;;;;;15.93;3.35;;;5.40;99.90;;;;;;5037064;28;20152;-87
2021/04/03 05:49:43;;;;;;;10.57;2.53;;;5.40;99.90;;;;;;5041387;28;20119;-87
2021/04/03 05:52:10;;;;;;;11.73;2.97;;;5.40;99.90;;;;;;5035521;28;20060;-87
2021/04/03 05:54:38;;;;;;;10.52;2.85;;;5.40;99.90;;;;;;5028016;28;20119;-85
2021/04/03 05:57:06;;;;;;;11.88;2.88;;;5.40;99.90;;;;;;5032729;28;20048;-87
2021/04/03 05:59:34;;;;;;;13.93;3.15;;;5.50;99.90;;;;;;5034875;28;20048;-87
2021/04/03 06:02:01;;;;;;;11.93;2.50;;;5.50;99.90;;;;;;5034800;28;20073;-86
2021/04/03 06:04:27;;;;;;;13.88;2.92;;;5.50;99.90;;;;;;5031347;28;20094;-87
2021/04/03 06:06:55;;;;;;;12.40;2.92;;;5.50;99.90;;;;;;5034175;28;20060;-87
2021/04/03 06:09:22;;;;;;;14.15;3.33;;;5.50;99.90;;;;;;5034540;28;20044;-86
2021/04/03 06:11:50;;;;;;;15.85;2.90;;;5.50;99.90;;;;;;5034934;28;20524;-87
2021/04/03 06:14:17;;;;;;;11.18;3.20;;;5.60;99.90;;;;;;5033337;28;20051;-87
2021/04/03 06:16:45;;;;;;;12.00;2.60;;;5.60;99.90;;;;;;5049841;28;20053;-87
2021/04/03 06:19:22;;;;;;;17.45;3.15;;;5.60;99.90;;;;;;5042274;28;20046;-87
2021/04/03 06:22:03;;;;;;;9.90;2.67;;;5.60;99.90;;;;;;5029899;28;20047;-87
2021/04/03 06:24:33;;;;;;;18.45;2.55;;;5.70;99.90;;;;;;5037592;28;20044;-87
2021/04/03 06:27:06;;;;;;;15.85;2.97;;;5.70;99.90;;;;;;5025514;28;20045;-87
2021/04/03 06:29:42;;;;;;;12.63;2.67;;;5.80;99.90;;;;;;5031862;28;20052;-87
2021/04/03 06:32:31;;;;;;;11.52;2.50;;;5.80;99.90;;;;;;5029331;28;20398;-87
2021/04/03 06:34:58;;;;;;;11.50;2.67;;;5.90;99.90;;;;;;5029464;28;20052;-87
2021/04/03 06:37:35;;;;;;;11.55;2.40;;;6.00;99.90;;;;;;5023968;28;20044;-87
2021/04/03 06:40:04;;;;;;;12.20;2.42;;;6.00;99.90;;;;;;5048051;28;20048;-87
2021/04/03 06:42:52;;;;;;;9.93;2.65;;;6.10;99.90;;;;;;5028759;28;20075;-87
2021/04/03 06:45:27;;;;;;;9.93;2.80;;;6.10;99.90;;;;;;5026866;28;20055;-87
2021/04/03 06:48:02;;;;;;;8.23;2.33;;;6.20;99.90;;;;;;5047124;28;20127;-88
2021/04/03 06:50:32;;;;;;;11.35;2.45;;;6.30;99.90;;;;;;5036028;28;20045;-87
2021/04/03 06:53:06;;;;;;;9.30;2.20;;;6.30;99.90;;;;;;5032641;28;20128;-86
2021/04/03 06:55:35;;;;;;;9.77;2.40;;;6.40;99.90;;;;;;5029837;28;20048;-86
2021/04/03 06:58:04;;;;;;;10.95;2.50;;;6.50;99.90;;;;;;5033697;28;20049;-86
2021/04/03 07:00:33;;;;;;;7.28;2.13;;;6.50;99.90;;;;;;5028242;28;20047;-85
2021/04/03 07:03:05;;;;;;;13.60;2.20;;;6.60;99.90;;;;;;5036146;28;20490;-86
2021/04/03 07:05:36;;;;;;;9.70;2.25;;;6.70;99.90;;;;;;5046894;28;20040;-84
2021/04/03 07:08:05;;;;;;;14.40;3.17;;;6.80;99.90;;;;;;5043021;28;20386;-84
2021/04/03 07:10:32;;;;;;;;;;;6.80;99.90;;;;;;5042634;28;20045;-84
2021/04/03 07:12:59;;;;;;;10.45;2.17;;;6.90;99.90;;;;;;5031389;28;19924;-84
2021/04/03 07:15:27;;;;;;;10.43;1.75;;;7.00;99.90;;;;;;5029970;28;20482;-83
2021/04/03 07:17:55;;;;;;;13.82;3.20;;;7.10;99.90;;;;;;5030177;28;20047;-84
2021/04/03 07:20:24;;;;;;;10.07;1.75;;;7.10;99.90;;;;;;5046890;28;20045;-83
2021/04/03 07:23:03;;;;;;;7.78;1.98;;;7.20;99.90;;;;;;5028284;28;20382;-83
2021/04/03 07:25:32;;;;;;;11.43;2.03;;;7.30;99.90;;;;;;5034531;28;20534;-83
2021/04/03 07:28:03;;;;;;;9.38;2.33;;;7.40;99.90;;;;;;5046652;28;20168;-83
2021/04/03 07:30:36;;;;;;;12.55;2.55;;;7.50;99.90;;;;;;5026142;28;20045;-83
2021/04/03 07:33:15;;;;;;;8.70;2.05;;;7.60;99.90;;;;;;5038946;28;20042;-83
2021/04/03 07:35:45;;;;;;;8.48;1.80;;;7.80;99.90;;;;;;5038352;28;20039;-83
2021/04/03 07:38:21;;;;;;;7.93;2.05;;;7.90;99.90;;;;;;5045718;28;20052;-83
2021/04/03 07:40:58;;;;;;;9.60;2.50;;;8.00;99.90;;;;;;5047696;28;20049;-83
2021/04/03 07:43:43;;;;;;;10.48;1.88;;;8.10;99.90;;;;;;5032962;28;20600;-83
2021/04/03 07:46:11;;;;;;;6.25;1.67;;;8.20;99.90;;;;;;5041857;28;20049;-85
2021/04/03 07:48:38;;;;;;;8.10;2.00;;;8.30;99.90;;;;;;5031718;28;20070;-83
2021/04/03 07:51:05;;;;;;;7.47;1.90;;;8.50;99.90;;;;;;5031678;28;20053;-84
2021/04/03 07:53:44;;;;;;;12.68;2.10;;;8.60;99.90;;;;;;5040861;28;20045;-84
2021/04/03 07:56:16;;;;;;;10.88;2.00;;;8.70;99.90;;;;;;5026646;28;20041;-84
2021/04/03 07:58:55;;;;;;;8.02;1.65;;;8.80;99.90;;;;;;5037091;28;20058;-84
2021/04/03 08:01:43;;;;;;;12.63;1.67;;;8.90;99.90;;;;;;5042035;28;20118;-84
2021/04/03 08:04:10;;;;;;;8.35;1.70;;;8.90;99.90;;;;;;5032689;28;20110;-84
2021/04/03 08:06:38;;;;;;;8.13;1.80;;;9.00;99.90;;;;;;5027798;28;20046;-84
2021/04/03 08:09:13;;;;;;;7.15;1.60;;;9.10;99.90;;;;;;5048254;28;20099;-85
2021/04/03 08:11:45;;;;;;;10.18;2.58;;;9.20;99.90;;;;;;5029065;28;20071;-84
2021/04/03 08:14:13;;;;;;;9.52;1.65;;;9.20;99.90;;;;;;5034503;28;20037;-84
2021/04/03 08:16:41;;;;;;;8.57;1.77;;;9.20;99.90;;;;;;5028743;28;20136;-84
2021/04/03 08:19:09;;;;;;;7.20;2.05;;;9.30;99.90;;;;;;5034698;28;20053;-84
2021/04/03 08:21:44;;;;;;;8.35;1.98;;;9.30;99.90;;;;;;5031714;28;20068;-84
2021/04/03 08:24:11;;;;;;;6.40;1.55;;;9.40;99.90;;;;;;5045504;28;20462;-83
2021/04/03 08:26:42;;;;;;;7.57;2.00;;;9.40;99.90;;;;;;5029181;28;20051;-84
2021/04/03 08:29:20;;;;;;;6.80;2.05;;;9.40;99.90;;;;;;5029845;28;20047;-84
2021/04/03 08:31:51;;;;;;;8.20;1.80;;;9.40;99.90;;;;;;5039776;28;20446;-84
2021/04/03 08:34:17;;;;;;;8.85;1.70;;;9.50;99.90;;;;;;5036493;28;20045;-84
2021/04/03 08:36:44;;;;;;;6.07;2.55;;;9.50;99.90;;;;;;5035650;28;20045;-84
2021/04/03 08:39:13;;;;;;;7.68;2.00;;;9.60;99.90;;;;;;5050614;28;20045;-84
2021/04/03 08:41:46;;;;;;;8.25;1.70;;;9.60;99.90;;;;;;5038824;28;20060;-84
2021/04/03 08:44:18;;;;;;;9.57;1.83;;;9.80;99.90;;;;;;5035450;28;20056;-84
2021/04/03 08:46:46;;;;;;;6.95;1.95;;;10.00;99.90;;;;;;5051728;28;20045;-84
2021/04/03 08:49:29;;;;;;;8.00;2.10;;;10.00;99.80;;;;;;5040502;28;20045;-84
2021/04/03 08:51:56;;;;;;;7.32;1.73;;;10.10;99.50;;;;;;5053501;28;20127;-84
2021/04/03 08:54:22;;;;;;;6.35;1.80;;;10.20;99.30;;;;;;5037910;28;20044;-84
2021/04/03 08:56:49;;;;;;;7.45;1.80;;;10.20;99.00;;;;;;5037952;28;20068;-85
2021/04/03 08:59:18;;;;;;;9.85;1.85;;;10.30;99.10;;;;;;5033455;28;20041;-85
2021/04/03 09:01:46;;;;;;;;;;;10.50;99.50;;;;;;5054436;28;20049;-84
2021/04/03 09:04:13;;;;;;;10.90;1.80;;;10.50;98.10;;;;;;5041153;28;19921;-84
2021/04/03 09:06:46;;;;;;;6.75;1.92;;;10.40;98.60;;;;;;5050591;28;20103;-84
2021/04/03 09:09:22;;;;;;;9.13;2.00;;;10.30;98.70;;;;;;5027881;28;20124;-84
2021/04/03 09:12:02;;;;;;;8.98;1.80;;;10.20;98.70;;;;;;5034075;28;20043;-84
2021/04/03 09:14:37;;;;;;;10.88;1.98;;;10.20;99.00;;;;;;5032721;28;20037;-84
2021/04/03 09:17:17;;;;;;;9.18;2.20;;;10.20;99.20;;;;;;5031268;28;20406;-84
2021/04/03 09:19:44;;;;;;;11.35;2.25;;;10.10;99.20;;;;;;5015114;28;20057;-84
2021/04/03 09:22:15;;;;;;;7.45;2.05;;;10.20;99.30;;;;;;5031924;28;20051;-84
2021/04/03 09:24:58;;;;;;;8.55;2.63;;;10.20;99.20;;;;;;5032416;28;20053;-84
2021/04/03 09:27:28;;;;;;;12.30;2.35;;;10.30;99.00;;;;;;5046451;28;20045;-84
2021/04/03 09:30:07;;;;;;;7.97;2.10;;;10.20;98.90;;;;;;5032034;28;20481;-84
2021/04/03 09:32:42;;;;;;;10.07;2.30;;;10.20;98.90;;;;;;5030810;28;20045;-85
2021/04/03 09:35:11;;;;;;;11.98;2.28;;;10.20;98.90;;;;;;5031633;28;20045;-85
2021/04/03 09:37:38;;;;;;;10.80;2.50;;;10.20;98.70;;;;;;5027417;28;20059;-84
2021/04/03 09:40:07;;;;;;;10.27;2.85;;;10.20;98.90;;;;;;5047825;28;20040;-85
2021/04/03 09:42:34;;;;;;;9.50;2.05;;;10.20;99.00;;;;;;5047278;28;20423;-85
2021/04/03 09:45:05;;;;;;;6.43;1.95;;;10.20;98.70;;;;;;5048270;28;20045;-85
2021/04/03 09:47:31;;;;;;;9.20;2.22;;;10.20;98.50;;;;;;5032717;28;20124;-83
2021/04/03 09:49:58;;;;;;;12.45;2.42;;;10.30;98.90;;;;;;5048184;28;20048;-84
2021/04/03 09:52:26;;;;;;;8.85;2.30;;;10.30;98.90;;;;;;5048109;28;20049;-84
2021/04/03 09:54:52;;;;;;;10.20;2.67;;;10.40;98.60;;;;;;5049109;28;20065;-84
2021/04/03 09:57:20;;;;;;;10.13;2.78;;;10.60;98.70;;;;;;5030140;28;20313;-84
2021/04/03 09:59:46;;;;;;;9.88;2.20;;;10.80;98.70;;;;;;5032108;28;20049;-85
2021/04/03 10:02:13;;;;;;;12.80;2.55;;;11.00;98.30;;;;;;5029620;28;20071;-84
2021/04/03 10:04:40;;;;;;;8.32;2.70;;;11.20;98.30;;;;;;5031537;28;20049;-85
2021/04/03 10:07:07;;;;;;;8.73;2.45;;;11.40;97.50;;;;;;5050518;28;20052;-84
2021/04/03 10:09:33;;;;;;;9.65;2.63;;;11.30;97.20;;;;;;5034203;28;20041;-84
2021/04/03 10:12:00;;;;;;;11.93;2.50;;;11.30;97.00;;;;;;5034141;28;20067;-85
2021/04/03 10:14:27;;;;;;;14.85;3.00;;;11.10;96.90;;;;;;5041962;28;20094;-82
2021/04/03 10:17:01;;;;;;;8.88;2.60;;;11.10;97.00;;;;;;5050427;28;20136;-83
2021/04/03 10:19:28;;;;;;;12.60;3.30;;;11.10;97.30;;;;;;5054857;28;20485;-87
2021/04/03 10:21:54;;;;;;;11.82;3.65;;;11.10;97.30;;;;;;5029069;28;20060;-88
2021/04/03 10:24:21;;;;;;;11.07;3.35;;;11.10;97.40;;;;;;5032136;28;21277;-88
2021/04/03 10:26:47;;;;;;;9.95;2.58;;;11.00;97.10;;;;;;5034050;28;20136;-87
2021/04/03 10:29:14;;;;;;;10.73;3.17;;;10.90;97.40;;;;;;5047262;28;20072;-87
2021/04/03 10:31:40;;;;;;;11.55;3.40;;;10.80;97.20;;;;;;5033876;28;20099;-87
2021/04/03 10:34:07;;;;;;;9.52;3.08;;;10.80;97.30;;;;;;5033326;28;20471;-87
2021/04/03 10:36:33;;;;;;;9.85;3.10;;;11.00;97.60;;;;;;5032091;28;20041;-88
2021/04/03 10:39:00;;;;;;;10.70;3.60;;;11.10;97.30;;;;;;5025762;28;20127;-88
2021/04/03 10:41:27;;;;;;;10.88;3.38;;;11.20;96.70;;;;;;5031385;28;20041;-87
2021/04/03 10:43:54;;;;;;;10.38;3.70;;;11.20;96.40;;;;;;5032547;28;20045;-87
2021/04/03 10:46:20;;;;;;;11.25;3.80;;;11.40;96.90;;;;;;5032670;28;20049;-88
2021/04/03 10:48:47;;;;;;;12.98;3.53;;;11.40;96.50;;;;;;5034133;28;20041;-88
2021/04/03 10:51:13;;;;;;;11.25;3.95;;;11.60;96.80;;;;;;5042910;28;20076;-88
2021/04/03 10:53:40;;;;;;;12.85;4.13;;;11.70;96.80;;;;;;5040683;28;20047;-89
2021/04/03 10:56:06;;;;;;;17.35;4.68;;;11.80;96.70;;;;;;5021342;28;20033;-88
2021/04/03 10:58:34;;;;;;;14.23;4.30;;;11.80;96.30;;;;;;5041024;28;20040;-88
2021/04/03 11:01:01;;;;;;;7.18;3.20;;;11.80;96.10;;;;;;5037553;28;20048;-88
2021/04/03 11:03:27;;;;;;;14.27;4.03;;;11.80;96.20;;;;;;5034808;28;20060;-88
2021/04/03 11:05:54;;;;;;;13.30;3.53;;;11.90;96.00;;;;;;5043573;28;20123;-88
2021/04/03 11:08:22;;;;;;;12.43;3.77;;;12.00;95.90;;;;;;5027609;28;20053;-88
2021/04/03 11:10:48;;;;;;;14.45;4.20;;;11.90;95.80;;;;;;5024880;28;20156;-88
2021/04/03 11:13:15;;;;;;;10.52;3.55;;;11.90;95.50;;;;;;5030573;28;20045;-88
2021/04/03 11:15:41;;;;;;;10.23;4.35;;;12.00;96.00;;;;;;5032051;28;20100;-88
2021/04/03 11:18:08;;;;;;;15.30;4.90;;;11.90;95.30;;;;;;5035009;28;20377;-88
2021/04/03 11:20:35;;;;;;;11.88;4.30;;;11.90;95.90;;;;;;5042793;28;20044;-88
2021/04/03 11:23:01;;;;;;;11.50;4.60;;;12.10;96.00;;;;;;5043843;28;20080;-88
2021/04/03 11:25:28;;;;;;;17.50;4.80;;;12.10;95.70;;;;;;5034746;28;20041;-88
2021/04/03 11:27:54;;;;;;;16.40;4.63;;;12.20;95.80;;;;;;5036158;28;20041;-88
2021/04/03 11:30:21;;;;;;;11.07;4.13;;;12.20;95.70;;;;;;5024928;28;20052;-89
2021/04/03 11:32:51;;;;;;;12.15;4.25;;;12.30;95.60;;;;;;5027932;28;20119;-89
2021/04/03 11:35:21;;;;;;;13.73;4.20;;;12.40;95.70;;;;;;5028965;28;20048;-89
2021/04/03 11:37:48;;;;;;;14.32;4.07;;;12.50;95.40;;;;;;5020261;28;20045;-88
2021/04/03 11:40:16;;;;;;;15.63;4.10;;;12.50;95.50;;;;;;5032086;28;20044;-89
2021/04/03 11:42:45;;;;;;;14.23;3.85;;;12.60;94.90;;;;;;5027552;28;20041;-88
2021/04/03 11:45:12;;;;;;;;;;;12.60;95.30;;;;;;5031227;28;20036;-90
2021/04/03 11:47:39;;;;;;;12.88;3.60;;;12.70;94.50;;;;;;5029249;28;19925;-88
2021/04/03 11:50:07;;;;;;;10.90;3.90;;;12.70;94.70;;;;;;5031467;28;20083;-88
2021/04/03 11:52:35;;;;;;;9.60;3.90;;;12.80;94.60;;;;;;5030764;28;20045;-89
2021/04/03 11:55:05;;;;;;;18.65;4.13;;;12.90;94.70;;;;;;5032253;28;20053;-88
2021/04/03 11:57:33;;;;;;;13.20;3.80;;;13.00;94.80;;;;;;5032408;28;20045;-88
2021/04/03 12:00:02;;;;;;;15.93;4.05;;;13.10;94.40;;;;;;5029598;28;20132;-88
2021/04/03 12:02:28;;;;;;;12.35;3.95;;;13.10;94.20;;;;;;5027276;28;20041;-88
2021/04/03 12:04:57;;;;;;;9.88;3.30;;;13.20;94.40;;;;;;5031901;28;20044;-88
2021/04/03 12:07:25;;;;;;;13.70;3.55;;;13.30;93.60;;;;;;5033119;28;20053;-87
2021/04/03 12:09:51;;;;;;;16.83;3.78;;;13.30;93.90;;;;;;5031849;28;20037;-87
2021/04/03 12:12:18;;;;;;;14.05;3.60;;;13.30;93.10;;;;;;5023961;28;20547;-87
2021/04/03 12:14:45;;;;;;;16.95;4.25;;;13.30;92.90;;;;;;5042715;28;20045;-86
2021/04/03 12:17:11;;;;;;;12.57;3.70;;;13.30;93.30;;;;;;5044381;28;20045;-88
2021/04/03 12:19:40;;;;;;;12.80;3.38;;;13.40;93.20;;;;;;5045246;28;20402;-88
2021/04/03 12:22:07;;;;;;;15.48;3.95;;;13.40;93.30;;;;;;5034121;28;20048;-87
2021/04/03 12:24:33;;;;;;;13.07;4.15;;;13.50;93.30;;;;;;5034555;28;20045;-88
2021/04/03 12:27:01;;;;;;;13.73;3.35;;;13.50;93.20;;;;;;5036816;28;20478;-88
2021/04/03 12:29:27;;;;;;;11.13;4.10;;;13.60;93.30;;;;;;5034544;28;20060;-88
2021/04/03 12:31:54;;;;;;;11.00;3.45;;;13.70;93.10;;;;;;5034015;28;20048;-87
2021/04/03 12:34:20;;;;;;;15.65;4.22;;;13.70;93.10;;;;;;5033764;28;20044;-88
2021/04/03 12:36:47;;;;;;;15.52;4.18;;;13.70;93.00;;;;;;5033367;28;20124;-88
2021/04/03 12:39:13;;;;;;;12.57;4.38;;;13.80;93.20;;;;;;5050834;28;20048;-88
2021/04/03 12:41:40;;;;;;;16.40;4.47;;;13.80;93.40;;;;;;5051219;28;20065;-88
2021/04/03 12:44:06;;;;;;;17.77;4.03;;;13.80;93.30;;;;;;5031705;28;20041;-88
2021/04/03 12:46:33;;;;;;;11.90;3.78;;;13.80;93.20;;;;;;5031924;28;20110;-88
2021/04/03 12:49:02;;;;;;;13.32;4.05;;;13.90;93.10;;;;;;5032961;28;20722;-88
2021/04/03 12:51:29;;;;;;;12.80;4.18;;;13.90;92.90;;;;;;5032364;28;20041;-88
2021/04/03 12:53:55;;;;;;;17.10;4.07;;;13.90;92.80;;;;;;5034058;28;20048;-88
2021/04/03 12:56:22;;;;;;;14.77;3.45;;;13.90;93.00;;;;;;5032579;28;20041;-88
2021/04/03 12:58:49;;;;;;;13.15;3.90;;;13.90;92.70;;;;;;5031052;28;20382;-88